createdAt,value
2023-04-20T00:00:28.205Z,100.00
2023-04-20T00:03:14.898Z,100.00
2023-04-20T00:05:55.021Z,100.00
2023-04-20T00:08:41.592Z,100.00
2023-04-20T00:11:22.104Z,100.00
2023-04-20T00:14:10.798Z,100.00
2023-04-20T00:16:57.803Z,100.00
2023-04-20T00:19:40.894Z,100.00
2023-04-20T00:22:27.582Z,100.00
2023-04-20T00:25:07.774Z,100.00
2023-04-20T00:27:54.581Z,100.00
2023-04-20T00:30:42.625Z,100.00
2023-04-20T00:33:24.000Z,100.00
2023-04-20T00:36:10.574Z,100.00
2023-04-20T00:38:51.030Z,100.00
2023-04-20T00:41:37.599Z,100.00
2023-04-20T00:44:24.593Z,100.00
2023-04-20T00:47:11.586Z,100.00
2023-04-20T00:49:53.372Z,100.00
2023-04-20T00:52:40.642Z,100.00
2023-04-20T00:55:29.543Z,100.00
2023-04-20T00:58:11.965Z,100.00
2023-04-20T01:00:59.568Z,100.00
2023-04-20T01:03:46.812Z,100.00
2023-04-20T01:06:28.063Z,100.00
2023-04-20T01:09:16.781Z,100.00
2023-04-20T01:11:57.091Z,100.00
2023-04-20T01:14:43.618Z,100.00
2023-04-20T01:17:31.596Z,100.00
2023-04-20T01:20:22.501Z,100.00
2023-04-20T01:23:03.081Z,100.00
2023-04-20T01:25:49.515Z,100.00
2023-04-20T01:28:36.513Z,100.00
2023-04-20T01:31:17.615Z,100.00
2023-04-20T01:34:04.472Z,100.00
2023-04-20T01:36:52.546Z,100.00
2023-04-20T01:39:32.972Z,100.00
2023-04-20T01:42:20.568Z,100.00
2023-04-20T01:45:10.466Z,100.00
2023-04-20T01:47:50.789Z,100.00
2023-04-20T01:50:37.543Z,100.00
2023-04-20T01:53:18.536Z,100.00
2023-04-20T01:56:05.517Z,100.00
2023-04-20T01:58:52.525Z,100.00
2023-04-20T02:01:33.854Z,100.00
2023-04-20T02:04:20.452Z,100.00
2023-04-20T02:07:00.818Z,100.00
2023-04-20T02:09:51.488Z,100.00
2023-04-20T02:12:32.312Z,100.00
2023-04-20T02:15:20.460Z,100.00
2023-04-20T02:18:07.692Z,100.00
2023-04-20T02:20:47.432Z,100.00
2023-04-20T02:23:29.771Z,100.00
2023-04-20T02:26:16.469Z,100.00
2023-04-20T02:28:56.957Z,100.00
2023-04-20T02:31:43.499Z,100.00
2023-04-20T02:34:24.534Z,100.00
2023-04-20T02:37:11.482Z,100.00
2023-04-20T02:39:51.783Z,100.00
2023-04-20T02:42:40.415Z,100.00
2023-04-20T02:45:27.667Z,100.00
2023-04-20T02:48:07.540Z,100.00
2023-04-20T02:50:54.438Z,100.00
2023-04-20T02:53:46.467Z,100.00
2023-04-20T02:56:34.983Z,100.00
2023-04-20T02:59:23.469Z,100.00
2023-04-20T03:02:18.629Z,100.00
2023-04-20T03:05:01.493Z,100.00
2023-04-20T03:07:55.520Z,100.00
2023-04-20T03:10:35.675Z,100.00
2023-04-20T03:13:29.398Z,100.00
2023-04-20T03:16:09.607Z,100.00
2023-04-20T03:19:04.454Z,100.00
2023-04-20T03:21:44.440Z,100.00
2023-04-20T03:24:31.467Z,100.00
2023-04-20T03:27:22.423Z,100.00
2023-04-20T03:30:21.321Z,100.00
2023-04-20T03:33:14.355Z,100.00
2023-04-20T03:36:02.328Z,100.00
2023-04-20T03:38:50.314Z,100.00
2023-04-20T03:41:38.526Z,100.00
2023-04-20T03:44:18.367Z,100.00
2023-04-20T03:46:58.790Z,100.00
2023-04-20T03:49:46.343Z,100.00
2023-04-20T03:52:33.470Z,100.00
2023-04-20T03:55:14.394Z,100.00
2023-04-20T03:58:00.752Z,100.00
2023-04-20T04:00:58.335Z,100.00
2023-04-20T04:03:45.540Z,100.00
2023-04-20T04:06:25.456Z,100.00
2023-04-20T04:09:12.308Z,100.00
2023-04-20T04:11:59.309Z,100.00
2023-04-20T04:14:39.735Z,100.00
2023-04-20T04:17:28.342Z,96.64
2023-04-20T04:20:09.226Z,91.72
2023-04-20T04:22:58.281Z,89.49
2023-04-20T04:25:42.619Z,93.81
2023-04-20T04:28:33.253Z,97.63
2023-04-20T04:31:40.427Z,88.37
2023-04-20T04:34:24.150Z,89.20
2023-04-20T04:37:11.228Z,88.66
2023-04-20T04:39:58.287Z,87.44
2023-04-20T04:42:48.289Z,87.06
2023-04-20T04:45:36.232Z,85.93
2023-04-20T04:48:19.064Z,88.10
2023-04-20T04:51:06.221Z,89.28
2023-04-20T04:53:47.519Z,91.95
2023-04-20T04:56:35.211Z,91.68
2023-04-20T04:59:22.371Z,90.78
2023-04-20T05:02:02.459Z,92.02
2023-04-20T05:04:49.275Z,93.32
2023-04-20T05:07:36.286Z,92.70
2023-04-20T05:10:16.734Z,94.42
2023-04-20T05:13:05.233Z,94.37
2023-04-20T05:15:52.352Z,95.53
2023-04-20T05:18:33.223Z,96.55
2023-04-20T05:21:13.580Z,95.61
2023-04-20T05:24:00.191Z,96.21
2023-04-20T05:26:40.661Z,96.57
2023-04-20T05:29:30.519Z,95.55
2023-04-20T05:32:17.199Z,97.14
2023-04-20T05:35:05.170Z,97.04
2023-04-20T05:37:47.560Z,95.80
2023-04-20T05:40:34.317Z,97.58
2023-04-20T05:43:21.363Z,97.14
2023-04-20T05:46:01.240Z,95.99
2023-04-20T05:48:48.242Z,95.25
2023-04-20T05:51:31.780Z,96.65
2023-04-20T05:54:18.197Z,99.75
2023-04-20T05:56:59.011Z,97.83
2023-04-20T05:59:46.127Z,96.56
2023-04-20T06:02:26.507Z,95.61
2023-04-20T06:05:14.201Z,95.29
2023-04-20T06:07:54.285Z,94.79
2023-04-20T06:10:41.135Z,94.95
2023-04-20T06:13:21.283Z,97.08
2023-04-20T06:16:08.135Z,98.01
2023-04-20T06:18:48.213Z,96.53
2023-04-20T06:21:35.138Z,94.50
2023-04-20T06:24:22.194Z,91.85
2023-04-20T06:27:09.198Z,93.58
2023-04-20T06:29:57.156Z,94.45
2023-04-20T06:32:44.182Z,91.82
2023-04-20T06:35:24.232Z,93.04
2023-04-20T06:38:11.107Z,93.54
2023-04-20T06:40:51.237Z,92.74
2023-04-20T06:43:38.064Z,94.89
2023-04-20T06:46:25.180Z,94.61
2023-04-20T06:49:05.546Z,94.15
2023-04-20T06:51:53.100Z,94.50
2023-04-20T06:54:33.444Z,91.74
2023-04-20T06:57:20.112Z,89.80
2023-04-20T07:00:00.610Z,89.33
2023-04-20T07:02:59.140Z,88.51
2023-04-20T07:05:46.066Z,85.16
2023-04-20T07:08:26.208Z,89.12
2023-04-20T07:11:13.021Z,93.19
2023-04-20T07:13:53.339Z,96.29
2023-04-20T07:16:40.149Z,98.11
2023-04-20T07:19:20.212Z,98.81
2023-04-20T07:22:07.036Z,100.00
2023-04-20T07:24:47.179Z,98.62
2023-04-20T07:40:24.725Z,91.11
2023-04-20T07:43:11.747Z,89.50
2023-04-20T07:45:58.748Z,87.98
2023-04-20T07:48:46.765Z,87.59
2023-04-20T07:51:26.857Z,86.98
2023-04-20T07:54:17.772Z,87.04
2023-04-20T07:56:57.997Z,83.96
2023-04-20T07:59:44.684Z,81.73
2023-04-20T08:02:31.812Z,79.61
2023-04-20T08:05:19.902Z,79.53
2023-04-20T08:07:59.809Z,79.60
2023-04-20T08:10:46.735Z,78.84
2023-04-20T08:13:27.701Z,79.26
2023-04-20T08:16:14.762Z,77.56
2023-04-20T08:19:01.663Z,74.35
2023-04-20T08:21:43.026Z,70.98
2023-04-20T08:24:29.679Z,65.04
2023-04-20T08:27:10.044Z,66.41
2023-04-20T08:29:56.658Z,69.23
2023-04-20T08:32:43.727Z,70.06
2023-04-20T08:35:23.712Z,70.97
2023-04-20T08:38:12.509Z,71.08
2023-04-20T08:40:56.879Z,70.01
2023-04-20T08:43:43.644Z,67.09
2023-04-20T08:46:24.767Z,66.60
2023-04-20T08:49:11.658Z,67.02
2023-04-20T08:51:52.883Z,68.99
2023-04-20T08:54:49.288Z,71.28
2023-04-20T08:57:42.571Z,73.01
2023-04-20T09:00:29.553Z,73.10
2023-04-20T09:03:09.927Z,69.08
2023-04-20T09:05:56.592Z,66.71
2023-04-20T09:08:47.714Z,64.66
2023-04-20T09:11:36.609Z,66.16
2023-04-20T09:14:27.644Z,69.14
2023-04-20T09:17:14.938Z,72.31
2023-04-20T09:20:07.805Z,74.71
2023-04-20T09:22:57.566Z,76.99
2023-04-20T09:25:45.658Z,76.98
2023-04-20T09:28:44.606Z,74.01
2023-04-20T09:31:26.746Z,71.43
2023-04-20T09:34:14.739Z,70.59
2023-04-20T09:36:57.852Z,67.03
2023-04-20T09:39:49.563Z,59.62
2023-04-20T09:42:33.657Z,57.99
2023-04-20T09:45:22.690Z,56.22
2023-04-20T09:48:03.751Z,55.52
2023-04-20T09:50:51.545Z,50.44
2023-04-20T09:53:39.593Z,46.98
2023-04-20T09:56:27.574Z,50.55
2023-04-20T09:59:08.684Z,55.75
2023-04-20T10:01:55.567Z,67.45
2023-04-20T10:04:35.834Z,71.90
2023-04-20T10:07:33.503Z,67.49
2023-04-20T10:10:18.836Z,51.88
2023-04-20T10:13:10.520Z,43.38
2023-04-20T10:15:57.543Z,49.04
2023-04-20T10:18:37.958Z,54.69
2023-04-20T10:21:25.462Z,57.90
2023-04-20T10:24:06.357Z,61.70
2023-04-20T10:26:55.530Z,63.29
2023-04-20T10:29:36.684Z,64.50
2023-04-20T10:32:38.582Z,66.77
2023-04-20T10:35:18.967Z,68.71
2023-04-20T10:38:05.473Z,67.69
2023-04-20T10:40:52.591Z,67.86
2023-04-20T10:43:32.509Z,69.30
2023-04-20T10:46:28.647Z,69.23
2023-04-20T10:49:08.559Z,57.13
2023-04-20T10:51:56.480Z,49.09
2023-04-20T10:54:43.581Z,45.86
2023-04-20T10:57:30.431Z,46.80
2023-04-20T11:00:31.194Z,49.80
2023-04-20T11:03:18.503Z,57.16
2023-04-20T11:06:01.544Z,58.19
2023-04-20T11:08:50.428Z,60.57
2023-04-20T11:11:39.541Z,63.29
2023-04-20T11:14:19.847Z,64.34
2023-04-20T11:17:07.547Z,65.68
2023-04-20T11:19:48.116Z,64.60
2023-04-20T11:22:35.451Z,64.64
2023-04-20T11:25:22.533Z,65.83
2023-04-20T11:28:19.430Z,65.33
2023-04-20T11:31:06.599Z,66.12
2023-04-20T11:33:46.515Z,66.42
2023-04-20T11:36:29.818Z,67.42
2023-04-20T11:39:24.413Z,66.19
2023-04-20T11:42:11.419Z,65.09
2023-04-20T11:44:58.465Z,64.50
2023-04-20T11:47:41.325Z,62.26
2023-04-20T11:50:28.458Z,61.28
2023-04-20T11:53:15.524Z,63.06
2023-04-20T11:55:55.342Z,64.86
2023-04-20T11:58:43.449Z,65.76
2023-04-20T12:01:23.482Z,65.76
2023-04-20T12:04:11.627Z,65.35
2023-04-20T12:07:07.413Z,64.11
2023-04-20T12:09:54.560Z,63.69
2023-04-20T12:12:37.439Z,61.70
2023-04-20T12:15:17.867Z,63.44
2023-04-20T12:18:04.389Z,65.38
2023-04-20T12:20:47.107Z,64.87
2023-04-20T12:23:34.377Z,66.61
2023-04-20T12:26:14.737Z,66.62
2023-04-20T12:29:01.403Z,67.08
2023-04-20T12:31:41.814Z,67.03
2023-04-20T12:34:28.327Z,67.54
2023-04-20T12:37:15.317Z,68.60
2023-04-20T12:40:02.370Z,68.51
2023-04-20T12:42:49.382Z,67.37
2023-04-20T12:45:29.486Z,66.13
2023-04-20T12:48:16.380Z,64.78
2023-04-20T12:51:03.377Z,64.61
2023-04-20T12:53:50.362Z,65.10
2023-04-20T12:56:30.491Z,63.70
2023-04-20T12:59:18.316Z,63.74
2023-04-20T13:02:05.422Z,65.36
2023-04-20T13:04:46.939Z,66.84
2023-04-20T13:07:40.298Z,67.28
2023-04-20T13:10:20.730Z,68.98
2023-04-20T13:13:08.294Z,69.57
2023-04-20T13:15:48.687Z,70.45
2023-04-20T13:18:35.270Z,71.75
2023-04-20T13:21:22.334Z,72.15
2023-04-20T13:24:09.335Z,70.90
2023-04-20T13:26:53.211Z,72.01
2023-04-20T13:29:42.315Z,71.72
2023-04-20T13:32:29.300Z,71.92
2023-04-20T13:35:19.253Z,71.89
2023-04-20T13:37:59.697Z,71.67
2023-04-20T13:40:46.427Z,70.75
2023-04-20T13:43:33.308Z,70.25
2023-04-20T13:46:13.438Z,71.30
2023-04-20T13:49:00.278Z,70.33
2023-04-20T13:51:47.308Z,71.36
2023-04-20T13:54:27.769Z,72.01
2023-04-20T13:57:07.936Z,72.14
2023-04-20T13:59:54.237Z,71.00
2023-04-20T14:02:41.505Z,72.42
2023-04-20T14:05:28.242Z,73.03
2023-04-20T14:08:15.281Z,73.93
2023-04-20T14:10:55.354Z,74.71
2023-04-20T14:13:43.360Z,75.38
2023-04-20T14:16:23.404Z,77.11
2023-04-20T14:19:10.301Z,77.43
2023-04-20T14:21:57.353Z,76.71
2023-04-20T14:24:44.248Z,76.08
2023-04-20T14:27:31.247Z,75.23
2023-04-20T14:30:12.341Z,75.77
2023-04-20T14:33:13.219Z,75.29
2023-04-20T14:35:53.780Z,75.83
2023-04-20T14:38:40.175Z,76.50
2023-04-20T14:41:27.256Z,76.51
2023-04-20T14:44:07.321Z,77.88
2023-04-20T14:46:54.347Z,76.63
2023-04-20T14:49:34.281Z,77.73
2023-04-20T14:52:21.231Z,75.79
2023-04-20T14:55:01.251Z,76.30
2023-04-20T14:57:48.216Z,75.42
2023-04-20T15:00:36.233Z,74.84
2023-04-20T15:03:17.704Z,73.73
2023-04-20T15:06:05.214Z,74.21
2023-04-20T15:08:59.123Z,73.04
2023-04-20T15:11:39.888Z,72.91
2023-04-20T15:14:27.241Z,72.90
2023-04-20T15:17:07.774Z,73.46
2023-04-20T15:19:54.175Z,74.71
2023-04-20T15:22:34.609Z,74.76
2023-04-20T15:25:22.271Z,74.61
2023-04-20T15:28:02.577Z,73.03
2023-04-20T15:30:49.248Z,74.34
2023-04-20T15:33:29.669Z,72.98
2023-04-20T15:36:16.102Z,74.32
2023-04-20T15:38:57.907Z,73.55
2023-04-20T15:41:45.235Z,73.19
2023-04-20T15:44:32.162Z,74.17
2023-04-20T15:47:19.138Z,74.39
2023-04-20T15:50:08.103Z,74.47
2023-04-20T15:52:57.176Z,74.83
2023-04-20T15:55:47.267Z,75.98
2023-04-20T15:58:27.141Z,75.59
2023-04-20T16:01:07.572Z,75.88
2023-04-20T16:03:54.282Z,76.26
2023-04-20T16:06:37.029Z,76.42
2023-04-20T16:09:24.189Z,77.36
2023-04-20T16:12:04.779Z,77.25
2023-04-20T16:14:53.642Z,78.23
2023-04-20T16:17:34.548Z,78.22
2023-04-20T16:20:22.171Z,79.31
2023-04-20T16:23:02.631Z,80.24
2023-04-20T16:25:49.186Z,80.97
2023-04-20T16:28:29.529Z,80.54
2023-04-20T16:31:16.093Z,80.56
2023-04-20T16:34:04.142Z,79.92
2023-04-20T16:36:44.360Z,81.11
2023-04-20T16:39:31.071Z,80.65
2023-04-20T16:42:11.203Z,80.50
2023-04-20T16:44:58.059Z,81.10
2023-04-20T16:47:38.201Z,81.59
2023-04-20T16:50:28.067Z,81.40
2023-04-20T16:53:08.223Z,81.72
2023-04-20T16:55:55.107Z,81.41
2023-04-20T16:58:35.294Z,81.92
2023-04-20T17:01:22.125Z,81.60
2023-04-20T17:04:02.567Z,81.31
2023-04-20T17:06:49.149Z,82.39
2023-04-20T17:09:43.006Z,81.72
2023-04-20T17:12:30.085Z,81.61
2023-04-20T17:15:18.145Z,82.22
2023-04-20T17:17:59.482Z,81.72
2023-04-20T17:20:46.059Z,81.77
2023-04-20T17:23:33.033Z,80.46
2023-04-20T17:26:13.229Z,80.51
2023-04-20T17:29:00.054Z,80.17
2023-04-20T17:31:40.245Z,80.78
2023-04-20T17:34:27.193Z,79.51
2023-04-20T17:37:14.012Z,79.45
2023-04-20T17:39:54.409Z,79.65
2023-04-20T17:42:41.999Z,79.26
2023-04-20T17:45:28.971Z,79.09
2023-04-20T17:48:09.507Z,78.47
2023-04-20T17:50:58.697Z,77.99
2023-04-20T17:53:39.049Z,78.70
2023-04-20T17:56:26.077Z,78.72
2023-04-20T17:59:06.217Z,79.18
2023-04-20T18:01:54.061Z,79.05
2023-04-20T18:04:34.412Z,79.06
2023-04-20T18:07:23.024Z,78.81
2023-04-20T18:10:11.207Z,79.26
2023-04-20T18:12:51.957Z,78.89
2023-04-20T18:15:32.913Z,79.05
2023-04-20T18:18:19.951Z,78.48
2023-04-20T18:21:00.502Z,78.30
2023-04-20T18:23:46.937Z,78.75
2023-04-20T18:26:33.997Z,78.39
2023-04-20T18:29:20.962Z,78.12
2023-04-20T18:32:01.617Z,77.86
2023-04-20T18:34:48.984Z,77.88
2023-04-20T18:37:29.264Z,78.22
2023-04-20T18:40:17.973Z,78.51
2023-04-20T18:43:05.018Z,78.82
2023-04-20T18:45:44.917Z,78.74
2023-04-20T18:48:25.338Z,79.43
2023-04-20T18:51:11.862Z,79.22
2023-04-20T18:53:59.948Z,78.53
2023-04-20T18:56:40.630Z,78.96
2023-04-20T18:59:27.878Z,79.62
2023-04-20T19:02:10.248Z,80.09
2023-04-20T19:04:57.862Z,79.51
2023-04-20T19:07:38.022Z,80.75
2023-04-20T19:10:24.838Z,80.16
2023-04-20T19:13:05.015Z,80.22
2023-04-20T19:15:51.835Z,80.66
2023-04-20T19:18:39.903Z,81.56
2023-04-20T19:21:26.834Z,80.57
2023-04-20T19:24:07.089Z,78.84
2023-04-20T21:18:03.924Z,83.95
2023-04-20T21:20:50.910Z,84.38
2023-04-20T21:23:31.038Z,84.08
2023-04-20T21:26:19.093Z,83.51
2023-04-20T21:28:59.190Z,83.87
2023-04-20T21:31:45.917Z,84.52
2023-04-20T21:34:32.867Z,83.98
2023-04-20T21:37:19.840Z,84.33
2023-04-20T21:40:07.159Z,84.31
2023-04-20T21:43:08.762Z,84.40
2023-04-20T21:45:56.833Z,85.50
2023-04-20T21:48:36.880Z,84.61
2023-04-20T21:51:25.032Z,84.92
2023-04-20T21:54:04.822Z,85.19
2023-04-20T21:56:52.848Z,86.08
2023-04-20T21:59:32.924Z,85.91
2023-04-20T22:02:19.907Z,85.54
2023-04-20T22:05:06.830Z,86.75
2023-04-20T22:07:47.260Z,86.56
2023-04-20T22:10:33.853Z,87.10
2023-04-20T22:13:14.171Z,87.35
2023-04-20T22:16:01.022Z,87.68
2023-04-20T22:18:55.776Z,88.17
2023-04-20T22:21:42.806Z,87.92
2023-04-20T22:24:22.927Z,89.11
2023-04-20T22:27:09.824Z,89.24
2023-04-20T22:29:49.929Z,89.26
2023-04-20T22:32:36.764Z,88.96
2023-04-20T22:35:23.858Z,89.29
2023-04-20T22:38:04.189Z,88.79
2023-04-20T22:40:50.850Z,89.25
2023-04-20T22:43:37.959Z,89.46
2023-04-20T22:46:17.812Z,89.63
2023-04-20T22:49:05.492Z,90.40
2023-04-20T22:51:44.832Z,91.01
2023-04-20T22:54:32.069Z,90.85
2023-04-20T22:57:11.747Z,91.66
2023-04-20T22:59:58.854Z,91.11
2023-04-20T23:02:38.973Z,91.41
2023-04-20T23:05:26.745Z,92.03
2023-04-20T23:08:13.773Z,92.20
2023-04-20T23:10:54.512Z,92.85
2023-04-20T23:13:43.863Z,91.62
2023-04-20T23:16:24.325Z,93.21
2023-04-20T23:19:10.869Z,93.52
2023-04-20T23:21:51.161Z,92.84
2023-04-20T23:24:37.769Z,93.21
2023-04-20T23:27:24.771Z,93.71
2023-04-20T23:30:11.732Z,93.59
2023-04-20T23:32:59.095Z,93.88
2023-04-20T23:35:42.864Z,94.52
2023-04-20T23:38:29.952Z,94.05
2023-04-20T23:41:15.943Z,93.57
2023-04-20T23:44:02.683Z,93.13
2023-04-20T23:46:42.971Z,93.90
2023-04-20T23:49:29.667Z,94.27
2023-04-20T23:52:09.887Z,93.50
2023-04-20T23:54:56.788Z,94.27
2023-04-20T23:57:36.788Z,93.92
